Orchard Hill, Georgia
Current Conditions -  °F | °C
As of 4:35 AM on Saturday 20 Dec 2014 (Local Time) from KOPN Reporting Station
Overcast Overcast  
Wind Chill: 42°   Ceiling: 6500
Heat Index: 45°   Visibility: 10mi
Dew Point: 45°   Wind: 5mph
Humidity: 100%   Direction: 30°NNE
Pressure: 30.13"   Gusts: NA
Location:  33.19°N, 84.21°W
Report Text: KOPN 200935Z AUTO 03004KT 10SM BKN065 OVC090 07/07 A3013 RMK AO2
Loading
Personal Weather Stations






























Interactive Weather Map New forecast layout! Learn more

10-Day Weather Forecast

Advertisements
Track Severe Weather on mobile